Time;durP1;ratioP1;P1;durP2;ratioP2;P2;SDS_P1;SDS_P2;PMS_P1;PMS_P2;Temp;Humidity;BMP_temperature;BMP_pressure;BME280_temperature;BME280_humidity;BME280_pressure;Samples;Min_cycle;Max_cycle;Signal;HPM_P1;HPM_P2
2021/12/02 00:01:41;;;;;;;3.75;1.38;;;;;;;;;;5076808;28;20178;-83
2021/12/02 00:04:10;;;;;;;2.92;1.55;;;;;;;;;;5076996;28;20207;-83
2021/12/02 00:06:38;;;;;;;1.77;1.17;;;;;;;;;;5076846;28;20221;-83
2021/12/02 00:09:05;;;;;;;1.20;1.10;;;;;;;;;;5076380;28;20216;-83
2021/12/02 00:11:33;;;;;;;1.60;1.42;;;;;;;;;;5076373;28;20208;-83
2021/12/02 00:14:06;;;;;;;3.05;2.35;;;;;;;;;;5076660;28;20197;-83
2021/12/02 00:16:38;;;;;;;2.65;1.13;;;;;;;;;;5076091;28;20246;-84
2021/12/02 00:22:00;;;;;;;1.92;1.50;;;;;;;;;;5076216;28;20193;-83
2021/12/02 00:24:34;;;;;;;5.55;1.75;;;;;;;;;;5076168;28;20594;-83
2021/12/02 00:27:05;;;;;;;2.03;1.20;;;;;;;;;;5076141;28;20225;-82
2021/12/02 00:29:34;;;;;;;1.75;1.10;;;;;;;;;;5075835;28;20600;-82
2021/12/02 00:32:06;;;;;;;1.85;1.00;;;;;;;;;;5075939;28;20190;-83
2021/12/02 00:34:35;;;;;;;5.75;1.30;;;;;;;;;;5075989;28;20185;-82
2021/12/02 00:37:04;;;;;;;1.20;1.10;;;;;;;;;;5074195;28;20217;-82
2021/12/02 00:39:32;;;;;;;0.82;0.82;;;;;;;;;;5075431;28;20631;-82
2021/12/02 00:42:01;;;;;;;1.52;1.13;;;;;;;;;;5075486;28;20191;-82
2021/12/02 00:44:31;;;;;;;0.77;0.70;;;;;;;;;;5075689;28;20655;-82
2021/12/02 00:47:01;;;;;;;2.78;1.63;;;;;;;;;;5075113;28;20221;-82
2021/12/02 00:49:29;;;;;;;1.02;0.93;;;;;;;;;;5074928;28;20689;-82
2021/12/02 00:52:00;;;;;;;2.72;1.58;;;;;;;;;;5075355;28;20579;-82
2021/12/02 00:54:31;;;;;;;1.10;0.93;;;;;;;;;;5075511;28;20197;-82
2021/12/02 00:56:58;;;;;;;2.10;1.15;;;;;;;;;;5075213;28;20239;-82
2021/12/02 00:59:30;;;;;;;1.33;1.23;;;;;;;;;;5074884;28;20201;-81
2021/12/02 01:01:59;;;;;;;2.63;1.55;;;;;;;;;;5074961;28;20205;-81
2021/12/02 01:04:26;;;;;;;2.10;1.20;;;;;;;;;;5075101;28;20208;-82
2021/12/02 01:06:54;;;;;;;2.15;1.73;;;;;;;;;;5075486;28;20307;-82
2021/12/02 01:09:22;;;;;;;2.70;1.27;;;;;;;;;;5074626;28;20213;-82
2021/12/02 01:11:54;;;;;;;1.90;1.40;;;;;;;;;;5074531;28;20177;-82
2021/12/02 01:14:21;;;;;;;4.05;1.45;;;;;;;;;;5075572;28;20185;-82
2021/12/02 01:16:49;;;;;;;3.15;1.73;;;;;;;;;;5074596;28;20225;-81
2021/12/02 01:19:17;;;;;;;4.22;1.65;;;;;;;;;;5074760;28;20205;-82
2021/12/02 01:21:45;;;;;;;1.85;1.40;;;;;;;;;;5075056;28;20192;-82
2021/12/02 01:24:16;;;;;;;4.97;1.55;;;;;;;;;;5075211;28;20205;-82
2021/12/02 01:26:52;;;;;;;3.75;1.95;;;;;;;;;;5074665;28;20577;-82
2021/12/02 01:29:23;;;;;;;1.67;1.42;;;;;;;;;;5075250;28;20233;-82
2021/12/02 01:31:54;;;;;;;4.15;1.67;;;;;;;;;;5075337;28;20185;-82
2021/12/02 01:34:25;;;;;;;2.42;1.92;;;;;;;;;;5064416;28;20206;-83
2021/12/02 01:36:55;;;;;;;1.95;1.48;;;;;;;;;;5055078;28;20618;-82
2021/12/02 01:39:23;;;;;;;3.67;1.60;;;;;;;;;;5053840;28;20186;-83
2021/12/02 01:41:55;;;;;;;3.92;2.13;;;;;;;;;;5054509;28;20649;-82
2021/12/02 01:44:28;;;;;;;4.05;1.60;;;;;;;;;;5054424;28;20188;-83
2021/12/02 01:46:58;;;;;;;7.43;1.92;;;;;;;;;;5054676;28;20210;-82
2021/12/02 01:49:30;;;;;;;5.22;1.40;;;;;;;;;;5065773;28;20271;-82
2021/12/02 01:51:58;;;;;;;1.60;1.50;;;;;;;;;;5074310;28;20185;-82
2021/12/02 01:54:27;;;;;;;2.33;1.50;;;;;;;;;;5074863;28;20552;-82
2021/12/02 01:57:05;;;;;;;4.03;1.80;;;;;;;;;;5074260;28;20225;-81
2021/12/02 01:59:34;;;;;;;4.28;1.50;;;;;;;;;;5074463;28;20245;-82
2021/12/02 02:02:06;;;;;;;3.70;2.38;;;;;;;;;;5074595;28;20192;-82
2021/12/02 02:04:34;;;;;;;5.70;2.33;;;;;;;;;;5074577;28;20268;-82
2021/12/02 02:07:03;;;;;;;4.78;1.70;;;;;;;;;;5069101;28;20217;-82
2021/12/02 02:09:33;;;;;;;2.05;1.63;;;;;;;;;;5054488;28;20218;-82
2021/12/02 02:12:06;;;;;;;5.15;2.17;;;;;;;;;;5054499;28;20189;-82
2021/12/02 02:14:34;;;;;;;4.45;1.45;;;;;;;;;;5069636;28;20189;-82
2021/12/02 02:17:08;;;;;;;4.50;1.77;;;;;;;;;;5074279;28;20227;-82
2021/12/02 02:19:35;;;;;;;4.13;1.88;;;;;;;;;;5074613;28;20330;-82
2021/12/02 02:22:05;;;;;;;3.60;1.70;;;;;;;;;;5074545;28;20190;-82
2021/12/02 02:24:33;;;;;;;4.85;1.83;;;;;;;;;;5063757;28;20202;-82
2021/12/02 02:27:00;;;;;;;2.17;1.48;;;;;;;;;;5063743;28;20271;-82
2021/12/02 02:29:27;;;;;;;2.45;1.60;;;;;;;;;;5078492;28;20228;-82
2021/12/02 02:31:55;;;;;;;3.78;1.98;;;;;;;;;;5077648;28;20186;-82
2021/12/02 02:34:25;;;;;;;4.35;1.33;;;;;;;;;;5077836;28;20289;-81
2021/12/02 02:36:55;;;;;;;5.00;2.45;;;;;;;;;;5077866;28;20267;-82
2021/12/02 02:39:24;;;;;;;3.45;1.65;;;;;;;;;;5077575;28;20193;-81
2021/12/02 02:41:57;;;;;;;2.17;1.20;;;;;;;;;;5078064;28;20204;-82
2021/12/02 02:44:26;;;;;;;5.03;2.65;;;;;;;;;;5077707;28;20181;-82
2021/12/02 02:46:54;;;;;;;2.47;1.48;;;;;;;;;;5077678;28;20220;-82
2021/12/02 02:49:21;;;;;;;3.97;1.52;;;;;;;;;;5077939;28;20217;-82
2021/12/02 02:51:49;;;;;;;6.13;2.20;;;;;;;;;;5077726;28;20182;-82
2021/12/02 02:54:17;;;;;;;1.35;1.25;;;;;;;;;;5077894;28;20196;-82
2021/12/02 02:56:51;;;;;;;1.95;1.27;;;;;;;;;;5077731;28;20228;-82
2021/12/02 02:59:26;;;;;;;2.22;1.33;;;;;;;;;;5077698;28;20311;-82
2021/12/02 03:02:05;;;;;;;2.88;1.38;;;;;;;;;;5077605;28;20185;-81
2021/12/02 03:04:37;;;;;;;5.28;1.65;;;;;;;;;;5077589;28;20249;-82
2021/12/02 03:07:09;;;;;;;1.02;1.00;;;;;;;;;;5076871;28;20220;-82
2021/12/02 03:12:27;;;;;;;3.85;1.55;;;;;;;;;;5076594;28;20232;-82
2021/12/02 03:17:44;;;;;;;1.83;1.33;;;;;;;;;;5077824;28;20224;-82
2021/12/02 03:20:13;;;;;;;1.15;1.08;;;;;;;;;;5077312;28;20193;-81
2021/12/02 03:22:41;;;;;;;1.30;1.20;;;;;;;;;;5077199;28;20193;-82
2021/12/02 03:25:10;;;;;;;1.10;1.02;;;;;;;;;;5077008;28;20189;-82
2021/12/02 03:27:39;;;;;;;2.30;1.30;;;;;;;;;;5076393;28;20248;-81
2021/12/02 03:30:07;;;;;;;3.53;1.77;;;;;;;;;;5077102;28;20674;-82
2021/12/02 03:32:37;;;;;;;1.40;1.27;;;;;;;;;;5076708;28;20183;-82
2021/12/02 03:35:06;;;;;;;3.72;1.98;;;;;;;;;;5076204;28;20186;-82
2021/12/02 03:37:34;;;;;;;2.22;1.67;;;;;;;;;;5076571;28;20241;-81
2021/12/02 03:40:02;;;;;;;2.22;1.85;;;;;;;;;;5076764;28;20204;-81
2021/12/02 03:42:29;;;;;;;2.83;1.90;;;;;;;;;;5076399;28;20695;-81
2021/12/02 03:44:58;;;;;;;1.20;1.10;;;;;;;;;;5076740;28;20185;-81
2021/12/02 03:47:25;;;;;;;2.03;1.30;;;;;;;;;;5077034;28;20227;-82
2021/12/02 03:49:53;;;;;;;1.35;1.10;;;;;;;;;;5077009;28;20235;-82
2021/12/02 03:52:20;;;;;;;3.95;1.48;;;;;;;;;;5076361;28;20204;-81
2021/12/02 03:54:47;;;;;;;3.05;1.90;;;;;;;;;;5075542;28;20201;-81
2021/12/02 03:57:15;;;;;;;3.70;1.48;;;;;;;;;;5076560;28;20225;-81
2021/12/02 03:59:42;;;;;;;7.65;2.55;;;;;;;;;;5077009;28;20628;-81
2021/12/02 04:02:11;;;;;;;2.70;1.50;;;;;;;;;;5076714;28;20208;-81
2021/12/02 04:04:38;;;;;;;7.10;2.13;;;;;;;;;;5075868;28;20178;-82
2021/12/02 04:07:06;;;;;;;1.60;1.20;;;;;;;;;;5076061;28;20224;-81
2021/12/02 04:09:38;;;;;;;2.47;1.38;;;;;;;;;;5075832;28;20209;-82
2021/12/02 04:12:10;;;;;;;3.22;1.15;;;;;;;;;;5076316;28;20223;-81
2021/12/02 04:14:40;;;;;;;2.17;1.33;;;;;;;;;;5036128;28;20191;-82
2021/12/02 04:17:12;;;;;;;0.85;0.85;;;;;;;;;;5035691;28;20241;-82
2021/12/02 04:19:40;;;;;;;1.55;1.17;;;;;;;;;;5047856;28;20270;-82
2021/12/02 04:22:07;;;;;;;1.25;1.10;;;;;;;;;;5055415;28;20197;-82
2021/12/02 04:24:35;;;;;;;1.80;1.20;;;;;;;;;;5054815;28;20197;-82
2021/12/02 04:27:03;;;;;;;1.83;1.20;;;;;;;;;;5061843;28;20235;-82
2021/12/02 04:29:30;;;;;;;2.10;1.35;;;;;;;;;;5075946;28;20232;-82
2021/12/02 04:31:58;;;;;;;2.20;1.05;;;;;;;;;;5076145;28;20280;-83
2021/12/02 04:34:27;;;;;;;1.45;1.05;;;;;;;;;;5075903;28;20201;-82
2021/12/02 04:36:54;;;;;;;1.83;1.40;;;;;;;;;;5075719;28;20220;-82
2021/12/02 04:39:22;;;;;;;4.30;1.63;;;;;;;;;;5075868;28;20189;-82
2021/12/02 04:41:50;;;;;;;1.70;1.55;;;;;;;;;;5076394;28;20292;-82
2021/12/02 04:44:19;;;;;;;2.50;1.35;;;;;;;;;;5075664;28;20215;-82
2021/12/02 04:46:47;;;;;;;2.17;1.30;;;;;;;;;;5075286;28;20224;-82
2021/12/02 04:49:15;;;;;;;4.05;1.40;;;;;;;;;;5075596;28;20256;-81
2021/12/02 04:51:44;;;;;;;1.08;1.08;;;;;;;;;;5074967;28;20243;-81
2021/12/02 04:54:11;;;;;;;3.97;2.45;;;;;;;;;;5075122;28;20196;-80
2021/12/02 04:56:39;;;;;;;1.92;1.50;;;;;;;;;;5074985;28;20221;-82
2021/12/02 04:59:06;;;;;;;1.70;1.40;;;;;;;;;;5075021;28;20196;-80
2021/12/02 05:01:34;;;;;;;2.15;1.95;;;;;;;;;;5074682;28;20200;-81
2021/12/02 05:04:01;;;;;;;3.80;2.83;;;;;;;;;;5074951;28;20193;-81
2021/12/02 05:06:29;;;;;;;6.10;2.65;;;;;;;;;;5074752;28;20200;-81
2021/12/02 05:08:58;;;;;;;2.17;1.90;;;;;;;;;;5074627;28;20659;-81
2021/12/02 05:11:25;;;;;;;1.67;1.38;;;;;;;;;;5074231;28;20267;-81
2021/12/02 05:13:53;;;;;;;1.23;1.17;;;;;;;;;;5073891;28;20193;-81
2021/12/02 05:16:20;;;;;;;3.33;1.60;;;;;;;;;;5074500;28;20196;-81
2021/12/02 05:18:48;;;;;;;1.20;1.10;;;;;;;;;;5075142;28;20181;-81
2021/12/02 05:21:15;;;;;;;1.30;1.23;;;;;;;;;;5074185;28;20616;-81
2021/12/02 05:23:42;;;;;;;1.90;1.55;;;;;;;;;;5074881;28;20201;-81
2021/12/02 05:26:11;;;;;;;3.28;2.13;;;;;;;;;;5073524;28;20201;-80
2021/12/02 05:28:39;;;;;;;3.65;2.03;;;;;;;;;;5074432;28;20236;-82
2021/12/02 05:31:06;;;;;;;3.83;1.90;;;;;;;;;;5074548;28;20225;-82
2021/12/02 05:33:34;;;;;;;4.43;2.38;;;;;;;;;;5074702;28;20174;-82
2021/12/02 05:36:01;;;;;;;4.60;1.55;;;;;;;;;;5074646;28;20193;-82
2021/12/02 05:38:29;;;;;;;3.83;1.65;;;;;;;;;;5074721;28;20706;-81
2021/12/02 05:40:56;;;;;;;2.67;1.80;;;;;;;;;;5074967;28;20185;-81
2021/12/02 05:43:29;;;;;;;3.20;2.65;;;;;;;;;;5076287;28;20205;-82
2021/12/02 05:45:57;;;;;;;1.30;1.15;;;;;;;;;;5077081;28;20197;-82
2021/12/02 05:48:24;;;;;;;3.05;1.45;;;;;;;;;;5074693;28;20228;-82
2021/12/02 05:50:52;;;;;;;1.15;1.10;;;;;;;;;;5075515;28;20305;-82
2021/12/02 05:53:20;;;;;;;1.95;1.75;;;;;;;;;;5074454;28;20211;-81
2021/12/02 05:55:47;;;;;;;5.05;2.05;;;;;;;;;;5074820;28;20185;-83
2021/12/02 05:58:15;;;;;;;2.47;1.65;;;;;;;;;;5078540;28;20220;-82
2021/12/02 06:00:44;;;;;;;3.00;2.13;;;;;;;;;;5078500;28;20188;-82
2021/12/02 06:03:11;;;;;;;1.35;1.10;;;;;;;;;;5076885;28;20185;-82
2021/12/02 06:05:40;;;;;;;1.35;1.25;;;;;;;;;;5078224;28;20182;-82
2021/12/02 06:08:07;;;;;;;1.38;1.20;;;;;;;;;;5077857;28;20275;-81
2021/12/02 06:10:35;;;;;;;0.90;0.90;;;;;;;;;;5077684;28;20209;-82
2021/12/02 06:13:02;;;;;;;1.13;1.10;;;;;;;;;;5077999;28;20185;-82
2021/12/02 06:15:30;;;;;;;1.17;1.08;;;;;;;;;;5077618;28;20201;-82
2021/12/02 06:17:58;;;;;;;1.20;1.10;;;;;;;;;;5077598;28;20220;-82
2021/12/02 06:20:26;;;;;;;1.10;0.95;;;;;;;;;;5077789;28;20628;-82
2021/12/02 06:22:53;;;;;;;1.92;1.83;;;;;;;;;;5077772;28;20632;-82
2021/12/02 06:28:07;;;;;;;1.75;1.27;;;;;;;;;;5079097;28;20274;-82
2021/12/02 06:30:34;;;;;;;1.05;1.05;;;;;;;;;;5077444;28;20200;-85
2021/12/02 06:33:03;;;;;;;1.92;1.80;;;;;;;;;;5076672;28;20201;-83
2021/12/02 06:35:31;;;;;;;1.67;1.20;;;;;;;;;;5076915;28;20200;-84
2021/12/02 06:37:59;;;;;;;2.08;1.20;;;;;;;;;;5076960;28;20224;-83
2021/12/02 06:40:27;;;;;;;1.40;1.30;;;;;;;;;;5073388;28;20587;-83
2021/12/02 06:42:55;;;;;;;1.30;1.20;;;;;;;;;;5053191;28;20733;-84
2021/12/02 06:45:22;;;;;;;1.17;1.17;;;;;;;;;;5055144;28;20204;-83
2021/12/02 06:47:51;;;;;;;1.33;1.23;;;;;;;;;;5055650;28;20216;-83
2021/12/02 06:50:21;;;;;;;1.77;1.67;;;;;;;;;;5054121;28;20240;-83
2021/12/02 06:52:51;;;;;;;1.20;1.20;;;;;;;;;;5055612;28;20217;-84
2021/12/02 06:55:21;;;;;;;1.60;1.50;;;;;;;;;;5055653;28;20189;-84
2021/12/02 06:57:49;;;;;;;2.50;2.30;;;;;;;;;;5055466;28;20276;-84
2021/12/02 07:00:19;;;;;;;4.72;1.80;;;;;;;;;;5056588;28;20190;-84
2021/12/02 07:02:47;;;;;;;3.88;1.63;;;;;;;;;;5055607;28;20194;-84
2021/12/02 07:05:17;;;;;;;1.90;1.80;;;;;;;;;;5053302;28;20181;-84
2021/12/02 07:07:46;;;;;;;1.40;1.30;;;;;;;;;;5055031;28;20218;-84
2021/12/02 07:10:17;;;;;;;2.60;2.22;;;;;;;;;;5055400;28;20192;-83
2021/12/02 07:12:47;;;;;;;4.20;2.30;;;;;;;;;;5055113;28;20214;-84
2021/12/02 07:15:17;;;;;;;2.00;1.80;;;;;;;;;;5052992;28;20617;-84
2021/12/02 07:17:46;;;;;;;2.55;1.80;;;;;;;;;;5055827;28;20232;-83
2021/12/02 07:20:14;;;;;;;1.80;1.70;;;;;;;;;;5056155;28;20194;-82
2021/12/02 07:22:42;;;;;;;4.00;2.65;;;;;;;;;;5055684;28;20189;-85
2021/12/02 07:25:13;;;;;;;2.47;2.28;;;;;;;;;;5056047;28;20628;-83
2021/12/02 07:27:41;;;;;;;2.30;2.10;;;;;;;;;;5049493;28;20234;-83
2021/12/02 07:30:10;;;;;;;3.25;2.47;;;;;;;;;;5056468;28;20209;-84
2021/12/02 07:32:40;;;;;;;3.92;2.60;;;;;;;;;;5042156;28;20217;-84
2021/12/02 07:35:11;;;;;;;2.70;2.00;;;;;;;;;;5069697;28;20271;-83
2021/12/02 07:37:43;;;;;;;1.98;1.73;;;;;;;;;;5058057;28;20232;-84
2021/12/02 07:40:13;;;;;;;1.50;1.40;;;;;;;;;;5058711;28;20666;-84
2021/12/02 07:42:42;;;;;;;2.30;2.03;;;;;;;;;;5059283;28;20650;-84
2021/12/02 07:45:11;;;;;;;5.05;2.90;;;;;;;;;;5056008;28;20179;-85
2021/12/02 07:47:41;;;;;;;1.77;1.63;;;;;;;;;;5056242;28;20213;-85
2021/12/02 07:50:12;;;;;;;1.90;1.80;;;;;;;;;;5055744;28;20212;-85
2021/12/02 07:52:45;;;;;;;1.70;1.60;;;;;;;;;;5070500;28;20205;-84
2021/12/02 07:55:16;;;;;;;1.55;1.45;;;;;;;;;;5066491;28;20198;-84
2021/12/02 07:57:45;;;;;;;2.20;2.03;;;;;;;;;;5055339;28;20221;-84
2021/12/02 08:00:15;;;;;;;2.70;2.50;;;;;;;;;;5055989;28;20197;-85
2021/12/02 08:02:47;;;;;;;2.55;2.35;;;;;;;;;;5062784;28;20186;-84
2021/12/02 08:05:17;;;;;;;3.47;2.83;;;;;;;;;;5073345;28;20189;-84
2021/12/02 08:07:45;;;;;;;2.33;2.13;;;;;;;;;;5065401;28;20726;-83
2021/12/02 08:10:16;;;;;;;2.58;2.38;;;;;;;;;;5073880;28;20193;-84
2021/12/02 08:12:47;;;;;;;3.03;2.80;;;;;;;;;;5063006;28;20296;-84
2021/12/02 08:15:16;;;;;;;3.30;2.00;;;;;;;;;;5041481;28;20201;-84
2021/12/02 08:17:44;;;;;;;1.67;1.58;;;;;;;;;;5057821;28;20224;-84
2021/12/02 08:20:14;;;;;;;3.28;1.63;;;;;;;;;;5063485;28;20201;-86
2021/12/02 08:22:42;;;;;;;2.92;2.63;;;;;;;;;;5063915;28;20204;-84
2021/12/02 08:25:10;;;;;;;2.78;2.28;;;;;;;;;;5056884;28;20190;-84
2021/12/02 08:27:41;;;;;;;2.45;2.08;;;;;;;;;;5058173;28;20233;-84
2021/12/02 08:30:12;;;;;;;2.50;2.30;;;;;;;;;;5056320;28;20194;-84
2021/12/02 08:32:42;;;;;;;1.83;1.73;;;;;;;;;;5067039;28;20287;-84
2021/12/02 08:35:10;;;;;;;2.70;2.50;;;;;;;;;;5075167;28;20619;-84
2021/12/02 08:37:42;;;;;;;2.25;2.15;;;;;;;;;;5057378;28;20578;-83
2021/12/02 08:40:13;;;;;;;2.38;1.60;;;;;;;;;;5068383;28;20185;-85
2021/12/02 08:42:41;;;;;;;1.33;1.25;;;;;;;;;;5058383;28;20220;-85
2021/12/02 08:45:10;;;;;;;2.08;1.98;;;;;;;;;;5072674;28;20258;-84
2021/12/02 08:47:43;;;;;;;4.53;2.67;;;;;;;;;;5069235;28;20209;-84
2021/12/02 08:50:11;;;;;;;2.97;2.65;;;;;;;;;;5074437;28;20196;-83
2021/12/02 08:52:39;;;;;;;2.72;2.53;;;;;;;;;;5072173;28;20221;-84
2021/12/02 08:55:09;;;;;;;4.45;3.15;;;;;;;;;;5054687;28;20174;-84
2021/12/02 08:57:37;;;;;;;3.25;2.70;;;;;;;;;;5054950;28;20221;-84
2021/12/02 09:00:11;;;;;;;2.10;1.90;;;;;;;;;;5069076;28;20189;-84
2021/12/02 09:02:38;;;;;;;1.90;1.80;;;;;;;;;;5074578;28;20189;-83
2021/12/02 09:05:07;;;;;;;3.95;2.63;;;;;;;;;;5074671;28;20204;-87
2021/12/02 09:07:35;;;;;;;4.60;2.63;;;;;;;;;;5072531;28;20215;-84
2021/12/02 09:10:03;;;;;;;2.30;2.20;;;;;;;;;;5065636;28;20190;-85
2021/12/02 09:12:33;;;;;;;2.47;2.20;;;;;;;;;;5054916;28;20217;-84
2021/12/02 09:15:01;;;;;;;2.80;2.55;;;;;;;;;;5064143;28;20193;-83
2021/12/02 09:17:30;;;;;;;5.55;4.28;;;;;;;;;;5073983;28;20291;-83
2021/12/02 09:19:57;;;;;;;2.65;2.15;;;;;;;;;;5074761;28;20268;-86
2021/12/02 09:22:24;;;;;;;3.05;2.33;;;;;;;;;;5065629;28;20193;-82
2021/12/02 09:24:53;;;;;;;3.20;2.28;;;;;;;;;;5066568;28;20196;-83
2021/12/02 09:27:20;;;;;;;2.58;2.38;;;;;;;;;;5076454;28;20229;-83
2021/12/02 09:29:48;;;;;;;2.35;2.25;;;;;;;;;;5094908;28;20200;-82
2021/12/02 09:32:15;;;;;;;3.88;2.97;;;;;;;;;;5084941;28;20197;-84
2021/12/02 09:34:45;;;;;;;3.25;2.45;;;;;;;;;;5078647;28;20191;-84
2021/12/02 09:37:12;;;;;;;1.67;1.58;;;;;;;;;;5091160;28;20209;-84
2021/12/02 09:39:40;;;;;;;2.45;2.25;;;;;;;;;;5087418;28;20192;-83
2021/12/02 09:42:10;;;;;;;2.42;2.22;;;;;;;;;;5085139;28;20185;-83
2021/12/02 09:44:39;;;;;;;3.78;2.80;;;;;;;;;;5086650;28;20627;-83
2021/12/02 09:47:07;;;;;;;2.60;2.40;;;;;;;;;;5095549;28;20216;-84
2021/12/02 09:49:35;;;;;;;2.58;2.38;;;;;;;;;;5087613;28;20209;-83
2021/12/02 09:52:09;;;;;;;2.90;2.60;;;;;;;;;;5092477;28;20200;-83
2021/12/02 09:54:40;;;;;;;3.50;2.45;;;;;;;;;;5089190;28;20224;-84
2021/12/02 09:57:13;;;;;;;4.68;2.25;;;;;;;;;;5095435;28;20234;-85
2021/12/02 09:59:49;;;;;;;2.22;2.08;;;;;;;;;;5096546;28;20882;-84
2021/12/02 10:02:20;;;;;;;3.45;3.15;;;;;;;;;;5098243;28;20279;-83
2021/12/02 10:04:50;;;;;;;1.98;1.88;;;;;;;;;;5097345;28;20181;-84
2021/12/02 10:07:25;;;;;;;2.35;1.85;;;;;;;;;;5091018;28;20214;-83
2021/12/02 10:10:01;;;;;;;2.00;1.90;;;;;;;;;;5101729;28;20235;-83
2021/12/02 10:12:30;;;;;;;2.50;2.30;;;;;;;;;;5100392;28;20218;-87
2021/12/02 10:14:59;;;;;;;2.88;2.60;;;;;;;;;;5094395;28;20191;-86
2021/12/02 10:17:35;;;;;;;2.00;1.90;;;;;;;;;;5097424;28;20224;-86
2021/12/02 10:20:16;;;;;;;2.67;2.47;;;;;;;;;;5102445;28;20210;-86
2021/12/02 10:23:10;;;;;;;3.58;2.88;;;;;;;;;;5096982;28;20288;-85
2021/12/02 10:25:38;;;;;;;3.28;2.97;;;;;;;;;;5094847;28;20658;-84
2021/12/02 10:28:08;;;;;;;2.40;2.20;;;;;;;;;;5095645;28;20231;-85
2021/12/02 10:30:40;;;;;;;2.83;2.28;;;;;;;;;;5096163;28;20207;-84
2021/12/02 10:33:09;;;;;;;2.20;2.00;;;;;;;;;;5095294;28;20223;-84
2021/12/02 10:35:43;;;;;;;1.63;1.52;;;;;;;;;;5097246;28;20208;-86
2021/12/02 10:38:34;;;;;;;1.77;1.67;;;;;;;;;;5095897;28;20706;-86
2021/12/02 10:41:07;;;;;;;1.80;1.70;;;;;;;;;;5095880;28;20615;-85
2021/12/02 10:43:35;;;;;;;2.35;2.17;;;;;;;;;;5097494;28;20584;-85
2021/12/02 10:46:17;;;;;;;1.63;1.52;;;;;;;;;;5100875;28;20204;-84
2021/12/02 10:48:50;;;;;;;1.80;1.70;;;;;;;;;;5100486;28;20283;-85
2021/12/02 10:51:42;;;;;;;1.67;1.58;;;;;;;;;;5100939;28;20547;-85
2021/12/02 10:54:14;;;;;;;2.08;1.50;;;;;;;;;;5097865;28;20263;-84
2021/12/02 10:56:46;;;;;;;1.40;1.30;;;;;;;;;;5100908;28;20624;-85
2021/12/02 10:59:31;;;;;;;1.20;1.20;;;;;;;;;;5100640;28;20204;-84
2021/12/02 11:02:02;;;;;;;1.63;1.48;;;;;;;;;;5101412;28;20196;-85
2021/12/02 11:04:38;;;;;;;1.40;1.10;;;;;;;;;;5100426;28;20650;-85
2021/12/02 11:07:11;;;;;;;2.05;1.17;;;;;;;;;;5100129;28;20222;-85
2021/12/02 11:09:41;;;;;;;1.23;1.23;;;;;;;;;;5100103;28;20211;-85
2021/12/02 11:12:16;;;;;;;0.90;0.90;;;;;;;;;;5099940;28;20251;-84
2021/12/02 11:14:56;;;;;;;1.13;1.05;;;;;;;;;;5100010;28;20238;-84
2021/12/02 11:17:29;;;;;;;1.63;1.27;;;;;;;;;;5100175;28;20222;-85
2021/12/02 11:19:57;;;;;;;1.25;1.15;;;;;;;;;;5099795;28;20238;-84
2021/12/02 11:22:27;;;;;;;1.10;1.02;;;;;;;;;;5099663;28;20302;-85
2021/12/02 11:24:56;;;;;;;1.98;1.05;;;;;;;;;;5099979;28;20192;-85
2021/12/02 11:27:28;;;;;;;1.27;1.17;;;;;;;;;;5100057;28;20219;-84
2021/12/02 11:30:00;;;;;;;1.35;1.08;;;;;;;;;;5100462;28;20197;-85
2021/12/02 11:32:33;;;;;;;2.65;1.27;;;;;;;;;;5100115;28;20204;-85
2021/12/02 11:35:08;;;;;;;1.92;1.55;;;;;;;;;;5099926;28;20311;-85
2021/12/02 11:37:36;;;;;;;1.60;1.30;;;;;;;;;;5099853;28;20233;-84
2021/12/02 11:40:11;;;;;;;1.25;1.20;;;;;;;;;;5100783;28;20200;-84
2021/12/02 11:42:39;;;;;;;1.55;1.45;;;;;;;;;;5099504;28;20698;-85
2021/12/02 11:45:10;;;;;;;1.40;1.30;;;;;;;;;;5099319;28;20745;-84
2021/12/02 11:47:38;;;;;;;1.60;1.50;;;;;;;;;;5099226;28;20303;-86
2021/12/02 11:50:09;;;;;;;1.92;1.30;;;;;;;;;;5100353;28;20231;-84
2021/12/02 11:52:38;;;;;;;1.40;1.30;;;;;;;;;;5099260;28;20574;-86
2021/12/02 11:55:11;;;;;;;1.30;1.20;;;;;;;;;;5096713;28;20227;-84
2021/12/02 11:57:39;;;;;;;3.72;1.30;;;;;;;;;;5097027;28;20224;-87
2021/12/02 12:00:10;;;;;;;1.65;1.35;;;;;;;;;;5097608;28;20204;-86
2021/12/02 12:02:39;;;;;;;1.30;1.20;;;;;;;;;;5098581;28;20650;-86
2021/12/02 12:05:08;;;;;;;1.48;1.38;;;;;;;;;;5099309;28;20680;-86
2021/12/02 12:07:46;;;;;;;1.30;1.27;;;;;;;;;;5100543;28;20216;-84
2021/12/02 12:10:34;;;;;;;1.42;1.05;;;;;;;;;;5100841;28;20282;-86
2021/12/02 12:13:18;;;;;;;1.20;1.20;;;;;;;;;;5099688;28;20223;-84
2021/12/02 12:15:50;;;;;;;1.35;1.25;;;;;;;;;;5099598;28;20220;-85
2021/12/02 12:18:36;;;;;;;2.60;1.50;;;;;;;;;;5098863;28;20220;-86
2021/12/02 12:21:07;;;;;;;1.70;1.60;;;;;;;;;;5097988;28;20592;-85
2021/12/02 12:23:57;;;;;;;1.10;0.90;;;;;;;;;;5099296;28;20219;-84
2021/12/02 12:26:36;;;;;;;1.23;1.13;;;;;;;;;;5097908;28;20685;-84
2021/12/02 12:29:33;;;;;;;1.38;1.27;;;;;;;;;;5098937;28;20223;-84
2021/12/02 12:32:46;;;;;;;1.23;1.15;;;;;;;;;;5098424;28;20283;-84
2021/12/02 12:35:26;;;;;;;1.15;1.15;;;;;;;;;;5098617;28;20279;-85
2021/12/02 12:38:03;;;;;;;1.10;1.10;;;;;;;;;;5098591;28;20219;-84
2021/12/02 12:40:43;;;;;;;1.23;1.10;;;;;;;;;;5098453;28;20204;-85
2021/12/02 12:43:37;;;;;;;1.50;1.40;;;;;;;;;;5098602;28;20204;-86
2021/12/02 12:46:11;;;;;;;2.05;1.10;;;;;;;;;;5098840;28;20275;-86
2021/12/02 12:48:39;;;;;;;1.20;1.20;;;;;;;;;;5098224;28;20243;-85
2021/12/02 12:51:23;;;;;;;1.00;1.00;;;;;;;;;;5098693;28;20551;-85
2021/12/02 12:53:53;;;;;;;1.08;1.08;;;;;;;;;;5098299;28;20193;-85
2021/12/02 12:56:35;;;;;;;1.20;1.10;;;;;;;;;;5097623;28;20228;-86
2021/12/02 12:59:08;;;;;;;1.33;1.23;;;;;;;;;;5097948;28;20286;-86
2021/12/02 13:01:37;;;;;;;1.02;1.00;;;;;;;;;;5098091;28;20235;-86
2021/12/02 13:04:25;;;;;;;1.55;1.10;;;;;;;;;;5098349;28;20282;-86
2021/12/02 13:07:16;;;;;;;1.15;1.10;;;;;;;;;;5097755;28;20744;-85
2021/12/02 13:09:54;;;;;;;1.33;1.20;;;;;;;;;;5097591;28;20214;-86
2021/12/02 13:12:42;;;;;;;1.23;1.20;;;;;;;;;;5097256;28;20267;-85
2021/12/02 13:15:11;;;;;;;1.40;1.30;;;;;;;;;;5093261;28;20222;-85
2021/12/02 13:17:45;;;;;;;0.93;0.93;;;;;;;;;;5097341;28;20216;-85
2021/12/02 13:20:39;;;;;;;1.00;1.00;;;;;;;;;;5097272;28;20191;-86
2021/12/02 13:23:37;;;;;;;4.03;1.48;;;;;;;;;;5098057;28;20207;-85
2021/12/02 13:26:21;;;;;;;2.00;1.38;;;;;;;;;;5091881;28;20240;-85
2021/12/02 13:28:51;;;;;;;1.50;1.40;;;;;;;;;;5095293;28;20212;-85
2021/12/02 13:31:22;;;;;;;1.15;1.15;;;;;;;;;;5097607;28;20294;-86
2021/12/02 13:33:52;;;;;;;1.40;1.30;;;;;;;;;;5097165;28;20204;-85
2021/12/02 13:36:22;;;;;;;1.58;1.48;;;;;;;;;;5096533;28;20216;-85
2021/12/02 13:39:05;;;;;;;1.23;1.13;;;;;;;;;;5096491;28;20223;-85
2021/12/02 13:41:38;;;;;;;1.48;1.38;;;;;;;;;;5096198;28;20287;-85
2021/12/02 13:44:10;;;;;;;1.10;1.10;;;;;;;;;;5095070;28;20199;-85
2021/12/02 13:46:44;;;;;;;1.45;1.38;;;;;;;;;;5095995;28;20212;-85
2021/12/02 13:49:14;;;;;;;1.40;1.30;;;;;;;;;;5096597;28;20697;-85
2021/12/02 13:54:35;;;;;;;1.60;1.50;;;;;;;;;;5096737;28;20233;-85
2021/12/02 13:57:18;;;;;;;1.90;1.80;;;;;;;;;;5096827;28;20216;-85
2021/12/02 13:59:45;;;;;;;1.50;1.40;;;;;;;;;;5096116;28;20199;-85
2021/12/02 14:02:21;;;;;;;1.77;1.67;;;;;;;;;;5096096;28;20204;-84
2021/12/02 14:04:50;;;;;;;1.40;1.30;;;;;;;;;;5096839;28;20203;-85
2021/12/02 14:07:20;;;;;;;1.40;1.30;;;;;;;;;;5096275;28;20227;-85
2021/12/02 14:09:52;;;;;;;1.33;1.23;;;;;;;;;;5097341;28;20195;-85
2021/12/02 14:12:23;;;;;;;1.10;1.05;;;;;;;;;;5097484;28;20685;-85
2021/12/02 14:15:08;;;;;;;1.00;1.00;;;;;;;;;;5097075;28;20744;-85
2021/12/02 14:17:52;;;;;;;0.80;0.80;;;;;;;;;;5098147;28;20231;-85
2021/12/02 14:20:23;;;;;;;0.77;0.77;;;;;;;;;;5101450;28;20673;-85
2021/12/02 14:22:54;;;;;;;0.75;0.75;;;;;;;;;;5101568;28;20253;-86
2021/12/02 14:25:23;;;;;;;0.63;0.63;;;;;;;;;;5100878;28;20193;-84
2021/12/02 14:28:20;;;;;;;0.80;0.80;;;;;;;;;;5100223;28;20289;-84
2021/12/02 14:30:52;;;;;;;0.80;0.80;;;;;;;;;;5099949;28;20212;-85
2021/12/02 14:33:24;;;;;;;1.40;1.30;;;;;;;;;;5099587;28;20204;-84
2021/12/02 14:35:56;;;;;;;0.80;0.80;;;;;;;;;;5099409;28;20219;-84
2021/12/02 14:38:33;;;;;;;0.80;0.80;;;;;;;;;;5100143;28;20232;-84
2021/12/02 14:41:12;;;;;;;0.70;0.70;;;;;;;;;;5099878;28;20628;-85
2021/12/02 14:43:49;;;;;;;0.90;0.90;;;;;;;;;;5099690;28;20200;-84
2021/12/02 14:46:24;;;;;;;1.05;1.05;;;;;;;;;;5099518;28;20577;-84
2021/12/02 14:49:06;;;;;;;1.40;1.30;;;;;;;;;;5099353;28;20200;-83
2021/12/02 14:51:53;;;;;;;1.48;1.38;;;;;;;;;;5099691;28;20212;-86
2021/12/02 14:54:29;;;;;;;1.30;1.20;;;;;;;;;;5099371;28;20206;-85
2021/12/02 14:56:57;;;;;;;1.70;1.60;;;;;;;;;;5100410;28;20226;-85
2021/12/02 14:59:28;;;;;;;1.08;1.08;;;;;;;;;;5099570;28;20677;-85
2021/12/02 15:02:08;;;;;;;1.30;1.20;;;;;;;;;;5100356;28;20650;-85
2021/12/02 15:04:39;;;;;;;1.25;1.20;;;;;;;;;;5099540;28;20196;-86
2021/12/02 15:07:13;;;;;;;2.80;1.40;;;;;;;;;;5099729;28;20231;-85
2021/12/02 15:09:46;;;;;;;1.52;1.42;;;;;;;;;;5098449;28;20203;-85
2021/12/02 15:12:21;;;;;;;2.03;1.83;;;;;;;;;;5098388;28;20295;-84
2021/12/02 15:14:51;;;;;;;1.17;1.17;;;;;;;;;;5099082;28;20196;-84
2021/12/02 15:17:22;;;;;;;1.58;1.48;;;;;;;;;;5098973;28;20228;-86
2021/12/02 15:19:52;;;;;;;1.90;1.50;;;;;;;;;;5099295;28;20578;-85
2021/12/02 15:22:30;;;;;;;1.83;1.73;;;;;;;;;;5098557;28;20204;-86